Time;durP1;ratioP1;P1;durP2;ratioP2;P2;SDS_P1;SDS_P2;PMS_P1;PMS_P2;Temp;Humidity;BMP_temperature;BMP_pressure;BME280_temperature;BME280_humidity;BME280_pressure;Samples;Min_cycle;Max_cycle;Signal;HPM_P1;HPM_P2
2022/03/29 00:00:28;;;;;;;18.25;6.20;;;;;;;9.18;63.61;100220.59;4979011;28;20046;-68
2022/03/29 00:02:55;;;;;;;15.18;6.90;;;;;;;9.14;63.53;100224.09;4978807;28;20062;-68
2022/03/29 00:05:21;;;;;;;14.27;6.60;;;;;;;9.12;64.21;100223.25;4981187;28;20052;-68
2022/03/29 00:07:47;;;;;;;12.80;5.75;;;;;;;9.11;63.89;100212.91;4982258;28;20059;-68
2022/03/29 00:10:14;;;;;;;20.90;7.38;;;;;;;9.11;63.64;100210.31;4982448;28;20055;-68
2022/03/29 00:12:42;;;;;;;14.95;6.78;;;;;;;9.09;64.19;100217.25;4972419;28;20059;-68
2022/03/29 00:15:09;;;;;;;11.25;5.63;;;;;;;9.07;64.28;100214.69;4972268;28;20054;-68
2022/03/29 00:17:36;;;;;;;10.52;5.97;;;;;;;9.09;64.27;100201.72;4979880;28;20466;-68
2022/03/29 00:20:04;;;;;;;13.50;6.13;;;;;;;9.11;64.25;100198.25;4978298;28;20058;-68
2022/03/29 00:22:30;;;;;;;11.48;4.88;;;;;;;9.14;63.78;100205.13;4979239;28;20066;-68
2022/03/29 00:24:57;;;;;;;12.82;6.15;;;;;;;9.14;64.30;100198.22;4978920;28;20051;-68
2022/03/29 00:27:23;;;;;;;16.73;6.10;;;;;;;9.12;64.13;100206.88;4980377;28;20054;-68
2022/03/29 00:29:51;;;;;;;12.65;6.20;;;;;;;9.09;64.62;100197.41;4983594;28;20114;-68
2022/03/29 00:32:18;;;;;;;11.77;5.65;;;;;;;9.10;64.51;100198.28;4981979;28;20047;-68
2022/03/29 00:34:44;;;;;;;12.90;5.90;;;;;;;9.12;64.50;100193.94;4980770;28;20051;-68
2022/03/29 00:37:13;;;;;;;13.02;5.97;;;;;;;9.14;63.81;100199.94;4979643;28;20065;-68
2022/03/29 00:39:40;;;;;;;12.48;5.82;;;;;;;9.13;64.84;100188.75;4977426;28;20059;-67
2022/03/29 00:42:06;;;;;;;15.07;7.50;;;;;;;9.12;64.27;100196.53;4977410;28;20065;-66
2022/03/29 00:44:35;;;;;;;17.88;8.13;;;;;;;9.10;64.27;100198.28;4977110;28;20374;-66
2022/03/29 00:47:03;;;;;;;21.67;8.07;;;;;;;9.09;64.23;100192.25;4976702;28;20054;-66
2022/03/29 00:49:30;;;;;;;18.15;6.50;;;;;;;9.06;65.08;100187.13;4977203;28;20096;-66
2022/03/29 00:52:00;;;;;;;9.93;5.47;;;;;;;9.08;64.51;100187.94;4977161;28;20051;-66
2022/03/29 00:54:27;;;;;;;14.07;6.20;;;;;;;9.08;64.18;100185.38;4975952;28;20046;-67
2022/03/29 00:56:54;;;;;;;15.73;7.15;;;;;;;9.07;64.68;100187.97;4975487;28;20046;-68
2022/03/29 00:59:21;;;;;;;14.90;7.00;;;;;;;9.03;64.82;100183.72;4975694;28;20054;-67
2022/03/29 01:01:48;;;;;;;14.18;6.35;;;;;;;9.00;65.13;100175.97;4976931;28;20070;-68
2022/03/29 01:04:16;;;;;;;13.10;6.88;;;;;;;9.02;65.19;100174.22;4975759;28;20054;-67
2022/03/29 01:06:43;;;;;;;14.80;7.10;;;;;;;9.04;64.50;100178.50;4975531;28;20061;-67
2022/03/29 01:09:10;;;;;;;22.70;8.43;;;;;;;9.00;65.13;100176.84;4976908;28;20054;-67
2022/03/29 01:11:37;;;;;;;15.85;7.28;;;;;;;8.95;65.08;100188.97;4976747;28;20066;-66
2022/03/29 01:14:04;;;;;;;15.50;6.75;;;;;;;8.95;65.49;100167.41;4976264;28;20378;-66
2022/03/29 01:19:19;;;;;;;16.13;7.80;;;;;;;8.91;64.92;100160.56;4976315;28;20145;-66
2022/03/29 01:21:55;;;;;;;13.95;7.18;;;;;;;8.82;65.36;100177.84;4976935;28;20084;-66
2022/03/29 01:24:22;;;;;;;17.83;7.15;;;;;;;8.79;65.58;100167.56;4976304;28;20131;-66
2022/03/29 01:26:50;;;;;;;13.05;6.43;;;;;;;8.78;65.25;100170.16;4976262;28;20145;-66
2022/03/29 01:29:17;;;;;;;18.65;7.32;;;;;;;8.78;65.34;100171.00;4976685;28;20055;-66
2022/03/29 01:31:43;;;;;;;14.82;7.03;;;;;;;8.77;65.52;100168.44;4976386;28;20065;-66
2022/03/29 01:34:11;;;;;;;13.45;6.10;;;;;;;8.79;65.39;100172.72;4976216;28;20050;-66
2022/03/29 01:36:37;;;;;;;14.63;5.95;;;;;;;8.79;65.11;100166.69;4976256;28;20054;-67
2022/03/29 01:39:05;;;;;;;13.95;6.30;;;;;;;8.78;64.73;100158.09;4976548;28;20105;-67
2022/03/29 01:41:31;;;;;;;16.38;5.75;;;;;;;8.77;64.82;100153.78;4976372;28;20054;-67
2022/03/29 01:43:59;;;;;;;14.18;5.97;;;;;;;8.79;64.65;100151.19;4976093;28;20051;-67
2022/03/29 01:46:26;;;;;;;13.25;6.72;;;;;;;8.82;64.74;100154.59;4975667;28;20442;-67
2022/03/29 01:48:52;;;;;;;14.23;5.70;;;;;;;8.81;64.17;100145.13;4976221;28;20046;-67
2022/03/29 01:51:19;;;;;;;14.38;5.72;;;;;;;8.80;64.16;100148.59;4975704;28;20474;-67
2022/03/29 01:53:52;;;;;;;9.68;4.57;;;;;;;8.83;64.25;100142.53;4975871;28;20047;-67
2022/03/29 01:56:20;;;;;;;12.15;5.40;;;;;;;8.85;63.49;100146.84;4976104;28;20057;-67
2022/03/29 01:58:47;;;;;;;14.55;5.05;;;;;;;8.86;63.66;100142.53;4975987;28;20058;-67
2022/03/29 02:01:13;;;;;;;13.57;5.53;;;;;;;8.85;64.16;100146.84;4975801;28;20059;-67
2022/03/29 02:03:40;;;;;;;9.32;4.20;;;;;;;8.86;63.79;100139.94;4975446;28;20093;-67
2022/03/29 02:06:08;;;;;;;13.38;5.07;;;;;;;8.85;63.76;100141.69;4975929;28;20058;-67
2022/03/29 02:08:34;;;;;;;12.73;4.95;;;;;;;8.82;63.81;100144.25;4975881;28;20054;-67
2022/03/29 02:11:01;;;;;;;13.88;5.95;;;;;;;8.79;63.57;100141.72;4975638;28;20054;-67
2022/03/29 02:13:29;;;;;;;13.27;5.80;;;;;;;8.75;63.74;100141.75;4975316;28;20113;-67
2022/03/29 02:15:55;;;;;;;14.30;6.50;;;;;;;8.71;63.90;100135.78;4975273;28;20494;-67
2022/03/29 02:18:22;;;;;;;11.52;5.63;;;;;;;8.68;63.71;100142.69;4975476;28;20058;-67
2022/03/29 02:20:48;;;;;;;11.27;5.20;;;;;;;8.66;63.64;100144.44;4975705;28;20062;-67
2022/03/29 02:23:15;;;;;;;14.98;5.80;;;;;;;8.64;63.94;100147.03;4975367;28;20061;-67
2022/03/29 02:25:45;;;;;;;18.63;5.25;;;;;;;8.57;64.15;100140.22;4975500;28;20061;-67
2022/03/29 02:28:12;;;;;;;19.38;6.07;;;;;;;8.53;64.34;100148.88;4975871;28;20050;-67
2022/03/29 02:30:40;;;;;;;16.38;6.22;;;;;;;8.51;64.21;100148.91;4975346;28;20058;-67
2022/03/29 02:33:07;;;;;;;14.13;5.80;;;;;;;8.50;64.53;100159.25;4975021;28;20065;-67
2022/03/29 02:35:34;;;;;;;14.30;6.47;;;;;;;8.47;64.32;100154.09;4974958;28;20046;-67
2022/03/29 02:38:01;;;;;;;12.40;5.63;;;;;;;8.44;64.45;100154.13;4974891;28;20077;-67
2022/03/29 02:40:28;;;;;;;15.77;6.22;;;;;;;8.45;64.69;100155.84;4974700;28;20051;-67
2022/03/29 02:42:56;;;;;;;14.90;6.15;;;;;;;8.47;64.49;100165.28;4974755;28;20062;-67
2022/03/29 02:45:24;;;;;;;12.52;6.32;;;;;;;8.47;64.65;100164.44;4974812;28;20090;-67
2022/03/29 02:47:55;;;;;;;14.20;5.97;;;;;;;8.45;64.76;100161.00;4975057;28;20063;-67
2022/03/29 02:50:23;;;;;;;12.25;6.25;;;;;;;8.45;64.65;100158.44;4975182;28;20051;-67
2022/03/29 02:52:52;;;;;;;14.85;5.50;;;;;;;8.43;64.81;100162.75;4974806;28;20062;-67
2022/03/29 02:55:20;;;;;;;12.18;4.40;;;;;;;8.44;64.63;100162.72;4974144;28;20058;-67
2022/03/29 02:57:47;;;;;;;15.73;5.97;;;;;;;8.45;64.88;100153.25;4974767;28;20058;-67
2022/03/29 03:00:15;;;;;;;12.65;6.07;;;;;;;8.46;64.51;100152.38;4974491;28;20051;-67
2022/03/29 03:02:42;;;;;;;12.18;5.60;;;;;;;8.48;64.40;100155.81;4974369;28;20057;-67
2022/03/29 03:05:10;;;;;;;16.42;5.22;;;;;;;8.52;64.40;100157.50;4974835;28;20078;-66
2022/03/29 03:07:37;;;;;;;12.18;5.50;;;;;;;8.56;64.36;100153.16;4974855;28;20133;-67
2022/03/29 03:10:04;;;;;;;17.30;6.40;;;;;;;8.57;64.31;100145.41;4974951;28;20054;-67
2022/03/29 03:12:35;;;;;;;13.63;5.95;;;;;;;8.58;64.30;100147.09;4974570;28;20057;-67
2022/03/29 03:15:01;;;;;;;15.40;5.85;;;;;;;8.58;64.64;100146.25;4974356;28;20139;-67
2022/03/29 03:17:28;;;;;;;17.83;6.25;;;;;;;8.54;64.35;100145.41;4974803;28;20051;-67
2022/03/29 03:19:54;;;;;;;13.25;5.35;;;;;;;8.53;63.90;100148.88;4974658;28;20051;-67
2022/03/29 03:22:22;;;;;;;15.45;5.57;;;;;;;8.53;63.92;100147.16;4974577;28;20070;-67
2022/03/29 03:24:48;;;;;;;18.00;6.53;;;;;;;8.49;64.34;100145.47;4974676;28;20050;-67
2022/03/29 03:27:16;;;;;;;12.43;4.93;;;;;;;8.48;63.82;100146.34;4974200;28;20051;-67
2022/03/29 03:29:42;;;;;;;13.50;5.47;;;;;;;8.50;64.24;100143.75;4974461;28;20059;-67
2022/03/29 03:32:09;;;;;;;10.55;4.75;;;;;;;8.49;63.90;100144.59;4974206;28;20043;-67
2022/03/29 03:34:36;;;;;;;15.50;5.95;;;;;;;8.50;63.90;100143.75;4974682;28;20146;-66
2022/03/29 03:37:03;;;;;;;10.85;4.65;;;;;;;8.50;63.83;100148.91;4974642;28;20139;-66
2022/03/29 03:39:32;;;;;;;18.20;6.97;;;;;;;8.48;63.28;100150.66;4974527;28;20222;-66
2022/03/29 03:41:59;;;;;;;15.07;7.20;;;;;;;8.41;63.45;100149.84;4974360;28;20054;-66
2022/03/29 03:44:25;;;;;;;18.92;7.82;;;;;;;8.34;63.46;100149.91;4974500;28;20055;-66
2022/03/29 03:46:51;;;;;;;14.32;5.88;;;;;;;8.30;63.70;100161.94;4973999;28;20671;-66
2022/03/29 03:49:18;;;;;;;14.75;5.22;;;;;;;8.27;63.77;100155.94;4974544;28;20051;-66
2022/03/29 03:51:44;;;;;;;10.40;4.05;;;;;;;8.24;63.62;100156.81;4974248;28;20069;-66
2022/03/29 03:54:11;;;;;;;13.38;5.07;;;;;;;8.17;63.74;100158.59;4973977;28;20050;-66
2022/03/29 03:56:39;;;;;;;15.00;5.90;;;;;;;8.13;63.64;100154.34;4974588;28;20391;-66
2022/03/29 03:59:06;;;;;;;12.38;5.80;;;;;;;8.07;63.88;100169.88;4974192;28;20057;-67
2022/03/29 04:01:34;;;;;;;11.88;5.40;;;;;;;8.04;63.85;100164.72;4974066;28;20051;-66
2022/03/29 04:04:01;;;;;;;14.32;5.57;;;;;;;8.03;63.61;100163.00;4974245;28;20066;-66
2022/03/29 04:06:27;;;;;;;15.40;5.63;;;;;;;7.98;63.63;100162.19;4974333;28;20062;-67
2022/03/29 04:08:54;;;;;;;14.02;5.85;;;;;;;7.97;63.36;100163.06;4973938;28;20054;-67
2022/03/29 04:11:20;;;;;;;13.63;5.03;;;;;;;7.94;63.39;100169.97;4973834;28;20121;-66
2022/03/29 04:13:48;;;;;;;15.07;6.22;;;;;;;7.89;63.63;100164.84;4973917;28;20054;-66
2022/03/29 04:16:15;;;;;;;12.88;4.68;;;;;;;7.88;63.61;100168.28;4973643;28;20467;-66
2022/03/29 04:18:41;;;;;;;14.45;4.47;;;;;;;7.89;63.52;100168.28;4973599;28;20074;-66
2022/03/29 04:21:09;;;;;;;9.00;3.97;;;;;;;7.89;63.41;100164.84;4974187;28;20054;-66
2022/03/29 04:23:36;;;;;;;11.77;4.85;;;;;;;7.91;63.08;100160.53;4974296;28;20058;-66
2022/03/29 04:26:02;;;;;;;13.00;5.18;;;;;;;7.91;63.15;100166.53;4974176;28;20195;-66
2022/03/29 04:28:31;;;;;;;13.55;4.95;;;;;;;7.90;63.35;100166.56;4974201;28;20046;-66
2022/03/29 04:30:59;;;;;;;13.80;5.03;;;;;;;7.89;63.37;100159.69;4973535;28;20478;-66
2022/03/29 04:33:26;;;;;;;13.45;4.57;;;;;;;7.88;63.04;100170.88;4974211;28;20097;-66
2022/03/29 04:35:52;;;;;;;11.40;4.68;;;;;;;7.88;63.03;100173.44;4974242;28;20090;-66
2022/03/29 04:38:19;;;;;;;12.23;4.53;;;;;;;7.89;62.94;100170.00;4974128;28;20057;-67
2022/03/29 04:40:46;;;;;;;15.90;5.55;;;;;;;7.90;63.20;100174.28;4977467;28;20059;-66
2022/03/29 04:43:12;;;;;;;12.45;4.57;;;;;;;7.89;62.85;100170.00;4977504;28;20063;-66
2022/03/29 04:45:39;;;;;;;15.02;5.03;;;;;;;7.87;63.15;100174.31;4977112;28;20069;-66
2022/03/29 04:48:07;;;;;;;12.52;5.20;;;;;;;7.84;63.45;100174.34;4976761;28;20505;-66
2022/03/29 04:50:34;;;;;;;16.33;5.47;;;;;;;7.82;62.76;100171.75;4977255;28;20050;-67
2022/03/29 04:53:01;;;;;;;16.02;4.78;;;;;;;7.79;63.37;100184.66;4977200;28;20059;-67
2022/03/29 04:55:27;;;;;;;11.35;4.43;;;;;;;7.79;63.05;100194.97;4977289;28;20046;-67
2022/03/29 04:57:53;;;;;;;14.95;4.97;;;;;;;7.79;63.47;100184.66;4976837;28;20074;-67
2022/03/29 05:00:21;;;;;;;12.40;4.72;;;;;;;7.80;63.29;100191.56;4976839;28;20059;-67
2022/03/29 05:02:48;;;;;;;11.50;4.80;;;;;;;7.82;63.16;100188.97;4977121;28;20137;-67
2022/03/29 05:05:17;;;;;;;10.20;4.45;;;;;;;7.85;62.98;100191.53;4976912;28;20047;-67
2022/03/29 05:07:44;;;;;;;14.65;5.30;;;;;;;7.84;63.10;100192.41;4976704;28;20062;-67
2022/03/29 05:10:12;;;;;;;10.32;4.93;;;;;;;7.81;63.11;100197.56;4976994;28;20054;-67
2022/03/29 05:12:39;;;;;;;13.90;5.63;;;;;;;7.80;63.61;100196.72;4976697;28;20109;-67
2022/03/29 05:15:07;;;;;;;14.02;6.00;;;;;;;7.81;63.29;100200.16;4976412;28;20674;-67
2022/03/29 05:17:35;;;;;;;13.35;5.10;;;;;;;7.87;63.28;100189.78;4976934;28;20062;-67
2022/03/29 05:20:01;;;;;;;9.30;4.57;;;;;;;7.93;63.48;100189.75;4976435;28;20094;-67
2022/03/29 05:22:30;;;;;;;14.40;4.90;;;;;;;7.99;63.65;100192.28;4976713;28;20422;-67
2022/03/29 05:24:56;;;;;;;14.35;5.20;;;;;;;8.06;63.62;100196.56;4976452;28;20466;-67
2022/03/29 05:27:23;;;;;;;14.93;5.85;;;;;;;8.14;63.41;100194.78;4976610;28;20047;-67
2022/03/29 05:29:50;;;;;;;19.52;7.32;;;;;;;8.19;63.42;100195.59;4976691;28;20055;-67
2022/03/29 05:32:18;;;;;;;15.80;5.80;;;;;;;8.21;63.16;100199.00;4976350;28;20051;-67
2022/03/29 05:34:45;;;;;;;13.88;5.20;;;;;;;8.22;63.22;100200.72;4976040;28;20062;-67
2022/03/29 05:37:11;;;;;;;11.88;5.55;;;;;;;8.27;62.97;100199.84;4976344;28;20051;-67
2022/03/29 05:39:40;;;;;;;14.18;5.90;;;;;;;8.32;62.71;100208.41;4976309;28;20047;-67
2022/03/29 05:42:07;;;;;;;11.80;5.32;;;;;;;8.37;62.93;100204.13;4976091;28;20126;-67
2022/03/29 05:44:33;;;;;;;17.30;5.70;;;;;;;8.39;62.47;100212.72;4975929;28;20058;-67
2022/03/29 05:49:44;;;;;;;16.10;6.05;;;;;;;8.39;62.59;100211.00;4975743;28;20062;-67
2022/03/29 05:52:10;;;;;;;11.45;4.93;;;;;;;8.41;61.96;100211.84;4976198;28;20054;-67
2022/03/29 05:54:39;;;;;;;13.75;5.05;;;;;;;8.46;61.90;100209.22;4975993;28;20054;-67
2022/03/29 05:57:07;;;;;;;10.80;4.43;;;;;;;8.50;61.98;100213.47;4975942;28;20065;-67
2022/03/29 05:59:34;;;;;;;15.48;5.68;;;;;;;8.54;61.57;100223.78;4976011;28;20047;-67
2022/03/29 06:02:04;;;;;;;11.07;4.75;;;;;;;8.56;61.56;100220.31;4975585;28;20065;-66
2022/03/29 06:04:31;;;;;;;15.45;5.85;;;;;;;8.59;61.36;100225.47;4975675;28;20055;-66
2022/03/29 06:06:58;;;;;;;12.88;4.90;;;;;;;8.59;60.89;100221.16;4975684;28;20070;-67
2022/03/29 06:09:24;;;;;;;17.70;5.55;;;;;;;8.62;61.47;100223.72;4975696;28;20050;-67
2022/03/29 06:11:50;;;;;;;24.05;6.68;;;;;;;8.67;61.42;100227.09;4975217;28;20059;-66
2022/03/29 06:14:19;;;;;;;12.07;4.80;;;;;;;8.66;60.38;100217.66;4969482;28;21279;-67
2022/03/29 06:16:46;;;;;;;21.23;5.15;;;;;;;8.69;60.10;100222.78;4970385;28;20525;-69
2022/03/29 06:32:49;;;;;;;11.18;3.50;;;;;;;9.24;58.40;100229.16;4961832;28;20073;-60
2022/03/29 06:35:21;;;;;;;10.18;3.17;;;;;;;9.30;58.07;100232.53;4965457;28;20053;-59
2022/03/29 06:37:48;;;;;;;6.95;3.30;;;;;;;9.33;56.01;100231.63;4973883;28;20067;-59
2022/03/29 06:40:15;;;;;;;7.65;3.00;;;;;;;9.36;55.90;100231.59;4973899;28;20050;-59
2022/03/29 06:42:41;;;;;;;10.88;3.75;;;;;;;9.40;55.86;100239.34;4973980;28;20394;-60
2022/03/29 06:45:09;;;;;;;7.57;2.97;;;;;;;9.46;55.15;100239.25;4972495;28;20058;-54
2022/03/29 06:47:36;;;;;;;8.50;2.75;;;;;;;9.51;54.58;100235.75;4959328;28;20066;-54
2022/03/29 06:50:05;;;;;;;9.95;3.03;;;;;;;9.56;54.62;100236.56;4941751;29;20070;-53
2022/03/29 06:52:35;;;;;;;9.52;2.40;;;;;;;9.64;54.03;100242.50;4954942;29;20051;-59
2022/03/29 06:55:02;;;;;;;6.32;2.08;;;;;;;9.74;53.85;100244.09;4939182;28;20138;-60
2022/03/29 06:57:28;;;;;;;7.40;2.42;;;;;;;9.83;52.95;100249.16;4953687;29;20059;-59
2022/03/29 06:59:55;;;;;;;9.10;3.47;;;;;;;9.91;52.81;100247.34;4938473;29;20439;-59
2022/03/29 07:02:21;;;;;;;6.68;1.85;;;;;;;10.02;52.13;100245.47;4960443;28;20467;-59
2022/03/29 07:04:48;;;;;;;14.05;3.95;;;;;;;10.12;51.03;100247.03;4954243;29;20051;-56
2022/03/29 07:07:16;;;;;;;12.02;2.38;;;;;;;10.19;50.71;100247.78;4945040;29;20051;-62
2022/03/29 07:12:30;;;;;;;4.60;1.90;;;;;;;10.41;50.00;100249.25;4952984;29;20490;-59
2022/03/29 07:14:57;;;;;;;4.50;1.67;;;;;;;10.55;50.22;100261.13;4949466;28;20055;-58
2022/03/29 07:17:23;;;;;;;6.28;2.63;;;;;;;10.67;49.70;100266.97;4948500;29;20098;-59
2022/03/29 07:19:50;;;;;;;4.47;1.75;;;;;;;10.82;49.12;100259.81;4953473;29;20495;-55
2022/03/29 07:22:18;;;;;;;7.13;1.90;;;;;;;10.96;48.59;100263.91;4949320;29;20062;-57
2022/03/29 07:24:45;;;;;;;5.30;1.90;;;;;;;11.10;48.30;100258.47;4937347;29;20055;-56
2022/03/29 07:27:12;;;;;;;3.70;1.40;;;;;;;11.23;47.57;100267.72;4948875;28;20054;-57
2022/03/29 07:29:39;;;;;;;4.07;1.50;;;;;;;11.32;47.05;100254.59;4955163;28;20071;-58
2022/03/29 07:32:06;;;;;;;5.85;2.00;;;;;;;11.35;45.96;100257.13;4942667;28;20139;-59
2022/03/29 07:34:35;;;;;;;5.90;1.20;;;;;;;11.42;45.63;100257.00;4940662;29;20059;-58
2022/03/29 07:37:02;;;;;;;2.88;1.35;;;;;;;11.47;45.68;100250.00;4953506;28;20059;-58
2022/03/29 07:39:30;;;;;;;3.67;1.42;;;;;;;11.50;43.91;100255.13;4953616;29;20341;-56
2022/03/29 07:41:56;;;;;;;3.17;1.48;;;;;;;11.52;43.99;100255.97;4952681;29;20455;-56
2022/03/29 07:44:23;;;;;;;4.00;1.08;;;;;;;11.59;43.43;100255.81;4938832;29;20467;-59
2022/03/29 07:46:50;;;;;;;3.40;1.30;;;;;;;11.66;42.60;100251.34;4962032;28;20059;-59
2022/03/29 07:49:17;;;;;;;2.65;0.90;;;;;;;11.74;42.82;100257.22;4965722;28;20470;-59
2022/03/29 07:51:43;;;;;;;2.17;0.80;;;;;;;11.82;42.38;100252.75;4972406;28;20434;-58
2022/03/29 07:54:10;;;;;;;2.92;1.48;;;;;;;11.90;42.31;100260.38;4972560;28;20385;-57
2022/03/29 07:56:37;;;;;;;1.80;0.82;;;;;;;11.98;41.86;100259.38;4972629;28;20070;-57
2022/03/29 07:59:04;;;;;;;2.85;1.20;;;;;;;12.02;41.74;100252.38;4970997;28;20170;-55
2022/03/29 08:01:31;;;;;;;7.70;1.30;;;;;;;12.08;41.62;100248.78;4972787;28;20086;-57
2022/03/29 08:03:57;;;;;;;3.00;0.90;;;;;;;12.14;41.50;100248.63;4974688;28;20051;-56
2022/03/29 08:06:24;;;;;;;7.63;1.23;;;;;;;12.20;41.04;100258.88;4974570;28;20055;-54
2022/03/29 08:08:53;;;;;;;2.80;1.00;;;;;;;12.26;40.75;100253.53;4971015;28;20062;-61
2022/03/29 08:11:20;;;;;;;2.70;1.13;;;;;;;12.32;40.05;100253.41;4964794;28;20055;-61
2022/03/29 08:13:48;;;;;;;6.03;1.20;;;;;;;12.39;40.01;100254.13;4973917;28;20054;-61
2022/03/29 08:19:37;;;;;;;5.40;1.90;;;;;;;12.55;40.56;100261.53;4967476;28;20046;-53
2022/03/29 08:22:06;;;;;;;4.00;1.25;;;;;;;12.62;40.31;100257.03;4980442;28;20065;-54
2022/03/29 08:24:33;;;;;;;3.95;1.27;;;;;;;12.68;40.17;100262.09;4982083;28;20461;-53
2022/03/29 08:26:59;;;;;;;2.70;1.02;;;;;;;12.74;40.20;100255.88;4976616;28;20558;-56
2022/03/29 08:29:27;;;;;;;3.13;1.10;;;;;;;12.78;39.93;100258.38;4963324;28;20764;-61
2022/03/29 08:31:54;;;;;;;4.47;0.98;;;;;;;12.83;39.71;100260.84;4976536;28;20046;-61
2022/03/29 08:34:21;;;;;;;4.95;1.52;;;;;;;12.87;39.30;100245.13;4976129;28;20061;-63
2022/03/29 08:36:49;;;;;;;5.00;0.98;;;;;;;12.91;38.82;100253.72;4975988;28;20065;-60
2022/03/29 08:39:16;;;;;;;4.07;1.27;;;;;;;12.94;39.05;100254.47;4976330;28;20137;-57
2022/03/29 08:41:46;;;;;;;2.85;1.20;;;;;;;12.98;39.04;100255.25;4976216;28;20054;-55
2022/03/29 08:44:14;;;;;;;4.63;1.45;;;;;;;13.01;38.81;100259.56;4976927;28;20077;-61
2022/03/29 08:46:42;;;;;;;6.20;1.33;;;;;;;13.02;38.10;100256.91;4966704;28;20055;-60
2022/03/29 08:49:10;;;;;;;3.72;1.00;;;;;;;13.04;37.88;100255.13;4960085;28;20245;-61
2022/03/29 08:51:40;;;;;;;6.93;1.52;;;;;;;13.05;37.24;100256.84;4962205;28;20051;-60
2022/03/29 08:54:07;;;;;;;6.85;1.90;;;;;;;13.02;37.04;100251.72;4957869;28;20427;-60
2022/03/29 08:56:34;;;;;;;9.23;2.75;;;;;;;13.00;36.32;100258.66;4959162;28;20054;-59
2022/03/29 08:59:01;;;;;;;4.40;1.60;;;;;;;12.83;35.67;100260.84;4956355;28;20427;-63
2022/03/29 09:01:27;;;;;;;4.13;1.65;;;;;;;12.60;36.24;100257.09;4955191;28;20138;-63
2022/03/29 09:04:12;;;;;;;8.43;2.78;;;;;;;12.45;36.01;100257.41;4958733;28;20121;-62
2022/03/29 09:06:58;;;;;;;2.47;1.10;;;;;;;12.38;36.61;100263.66;4965937;28;20087;-58
2022/03/29 09:09:29;;;;;;;8.35;1.35;;;;;;;12.37;37.36;100256.75;4970876;28;20478;-61
2022/03/29 09:11:59;;;;;;;10.95;1.65;;;;;;;12.30;37.10;100260.38;4957112;28;20130;-61
2022/03/29 09:14:30;;;;;;;6.20;1.67;;;;;;;12.22;37.38;100251.91;4958247;28;20177;-63
2022/03/29 09:16:58;;;;;;;8.57;2.15;;;;;;;12.17;37.66;100259.81;4954609;28;20079;-58
2022/03/29 09:19:51;;;;;;;5.35;1.65;;;;;;;12.15;37.78;100255.53;4954747;28;20051;-60
2022/03/29 09:22:35;;;;;;;5.65;1.55;;;;;;;12.09;37.60;100256.53;4954139;28;20047;-58
2022/03/29 09:25:04;;;;;;;1.90;0.85;;;;;;;12.07;37.99;100257.44;4972457;28;20055;-60
2022/03/29 09:27:53;;;;;;;1.95;0.90;;;;;;;12.12;38.33;100250.41;4951596;28;20053;-62
2022/03/29 09:30:24;;;;;;;4.97;1.70;;;;;;;12.18;38.16;100250.28;4962684;28;20054;-59
2022/03/29 09:32:57;;;;;;;9.57;2.05;;;;;;;12.16;37.49;100236.47;4972564;28;20058;-59
2022/03/29 09:35:26;;;;;;;4.47;1.27;;;;;;;12.07;38.03;100244.47;4960163;28;20548;-61
2022/03/29 09:37:54;;;;;;;9.68;1.70;;;;;;;11.97;37.57;100241.22;4966343;28;20478;-60
2022/03/29 09:40:22;;;;;;;4.82;1.33;;;;;;;11.85;37.84;100242.31;4962448;28;20474;-61
2022/03/29 09:43:04;;;;;;;5.25;1.88;;;;;;;11.81;37.50;100239.81;4972979;28;20154;-60
2022/03/29 09:45:43;;;;;;;9.50;1.73;;;;;;;11.82;37.59;100241.53;4963267;28;20051;-56
2022/03/29 09:48:41;;;;;;;7.10;2.08;;;;;;;11.82;37.18;100238.94;4963942;28;20069;-63
2022/03/29 09:51:21;;;;;;;2.80;1.30;;;;;;;11.83;37.65;100244.09;4945066;28;20059;-64
2022/03/29 09:53:51;;;;;;;7.82;1.70;;;;;;;11.84;37.66;100244.94;4966934;28;20054;-57
2022/03/29 09:56:24;;;;;;;5.80;0.98;;;;;;;11.81;37.61;100240.66;4969680;28;20047;-62
2022/03/29 09:59:08;;;;;;;13.13;1.70;;;;;;;11.80;37.53;100233.75;4959752;28;20066;-61
2022/03/29 10:01:48;;;;;;;3.22;1.35;;;;;;;11.80;37.39;100227.72;4968139;28;20047;-60
2022/03/29 10:04:17;;;;;;;3.17;1.80;;;;;;;11.84;37.44;100238.00;4957821;28;20055;-63
2022/03/29 10:06:49;;;;;;;7.15;1.48;;;;;;;11.84;37.50;100235.41;4969218;28;20138;-63
2022/03/29 10:09:28;;;;;;;6.28;1.40;;;;;;;11.81;37.10;100230.28;4960825;28;20513;-64
2022/03/29 10:11:58;;;;;;;6.45;1.85;;;;;;;11.82;37.32;100232.00;4968557;28;20082;-61
2022/03/29 10:14:27;;;;;;;4.47;1.63;;;;;;;11.84;37.23;100234.56;4965766;28;20075;-62
2022/03/29 10:16:56;;;;;;;4.03;1.70;;;;;;;11.88;37.07;100231.00;4958993;28;20074;-62
2022/03/29 10:19:25;;;;;;;3.63;1.13;;;;;;;11.88;37.17;100231.84;4967227;28;20050;-59
2022/03/29 10:21:55;;;;;;;12.70;1.85;;;;;;;11.84;37.27;100234.56;4965967;28;20057;-58
2022/03/29 10:24:23;;;;;;;7.63;1.38;;;;;;;11.80;36.92;100228.56;4970471;28;20069;-56
2022/03/29 10:26:55;;;;;;;7.07;1.27;;;;;;;11.77;36.91;100231.19;4958439;28;20109;-58
2022/03/29 10:29:24;;;;;;;6.63;1.23;;;;;;;11.71;36.95;100228.75;4969226;28;20078;-58
2022/03/29 10:31:53;;;;;;;2.75;1.25;;;;;;;11.67;36.99;100232.28;4964925;28;20057;-58
2022/03/29 10:34:24;;;;;;;3.85;1.10;;;;;;;11.66;36.93;100230.56;4961569;28;20456;-59
2022/03/29 10:37:10;;;;;;;12.80;2.05;;;;;;;11.68;36.67;100223.59;4971033;28;20085;-60
2022/03/29 10:39:57;;;;;;;6.78;1.40;;;;;;;11.61;36.69;100216.84;4963238;28;20059;-60
2022/03/29 10:42:28;;;;;;;5.38;2.10;;;;;;;11.59;37.37;100218.63;4961463;28;20047;-58
2022/03/29 10:45:19;;;;;;;4.25;1.10;;;;;;;11.60;37.30;100221.19;4962772;28;20051;-59
2022/03/29 10:47:48;;;;;;;5.00;1.45;;;;;;;11.64;36.97;100217.63;4964074;28;20053;-59
2022/03/29 10:50:15;;;;;;;5.85;2.20;;;;;;;11.61;37.34;100216.84;4967187;28;20173;-59
2022/03/29 10:52:45;;;;;;;5.53;1.73;;;;;;;11.58;37.27;100209.13;4957628;28;20061;-60
2022/03/29 10:55:33;;;;;;;7.18;1.73;;;;;;;11.49;37.01;100212.75;4958258;28;20050;-62
2022/03/29 10:58:09;;;;;;;4.07;1.35;;;;;;;11.44;37.62;100213.72;4950528;28;20073;-61
2022/03/29 11:00:35;;;;;;;;;;;;;;;11.37;37.17;100212.97;4970510;28;20065;-63
2022/03/29 11:03:31;;;;;;;3.55;1.08;;;;;;;11.29;37.09;100220.06;4956307;28;19932;-62
2022/03/29 11:06:05;;;;;;;5.82;1.48;;;;;;;11.26;37.01;100220.97;4954565;28;20070;-62
2022/03/29 11:08:35;;;;;;;8.43;1.27;;;;;;;11.24;37.31;100220.16;4954757;28;20078;-60
2022/03/29 11:11:02;;;;;;;7.85;1.30;;;;;;;11.20;36.71;100212.47;4967992;28;20439;-60
2022/03/29 11:13:34;;;;;;;6.13;1.35;;;;;;;11.18;36.96;100209.91;4949078;28;20110;-57
2022/03/29 11:16:30;;;;;;;3.70;0.93;;;;;;;11.18;36.47;100204.72;4956829;28;20142;-55
2022/03/29 11:18:57;;;;;;;;;;;;;;;11.20;35.94;100210.72;4956780;28;20050;-58
2022/03/29 11:21:39;;;;;;;5.25;0.95;;;;;;;11.22;35.61;100216.72;4964254;28;20001;-57
2022/03/29 11:24:10;;;;;;;4.93;1.30;;;;;;;11.20;36.09;100208.13;4953207;28;20185;-60
2022/03/29 11:26:37;;;;;;;6.32;1.23;;;;;;;11.16;36.75;100205.63;4970955;28;20055;-57
2022/03/29 11:29:07;;;;;;;26.17;2.38;;;;;;;11.13;36.48;100206.53;4968959;23;20051;-62
2022/03/29 11:31:40;;;;;;;8.60;1.00;;;;;;;11.03;36.61;100192.88;4992615;28;20371;-62
2022/03/29 11:34:11;;;;;;;6.22;0.95;;;;;;;10.99;36.80;100200.75;4994057;28;20061;-60
2022/03/29 11:36:40;;;;;;;4.28;0.93;;;;;;;11.00;37.00;100197.28;4991039;28;20136;-61
2022/03/29 11:39:21;;;;;;;2.53;0.88;;;;;;;11.00;36.95;100202.47;4993479;28;20129;-61
2022/03/29 11:41:51;;;;;;;5.25;1.77;;;;;;;10.94;37.28;100192.22;4993645;28;20050;-60
2022/03/29 11:44:23;;;;;;;5.78;1.25;;;;;;;10.84;37.24;100188.91;4991055;28;20108;-60
2022/03/29 11:46:58;;;;;;;2.90;0.88;;;;;;;10.78;36.95;100191.59;4977274;28;20052;-60
2022/03/29 11:49:28;;;;;;;1.08;0.50;;;;;;;10.78;37.46;100186.41;4997059;28;20050;-62
2022/03/29 11:52:06;;;;;;;4.20;0.70;;;;;;;10.81;37.63;100180.31;4997321;28;20068;-62
2022/03/29 11:54:39;;;;;;;3.40;0.95;;;;;;;10.74;37.76;100180.44;4997201;28;20050;-61
2022/03/29 11:57:24;;;;;;;3.90;1.10;;;;;;;10.65;38.02;100174.56;4996975;28;20035;-60
2022/03/29 11:59:52;;;;;;;5.32;1.20;;;;;;;10.56;38.19;100179.91;4995892;28;20050;-58